sensor_id;sensor_type;location;lat;lon;timestamp;P1;P2;P0
76238;PMS7003;65043;48.392;-4.472;2022-12-18T00:01:03;51.75;36.25;24.00
76238;PMS7003;65043;48.392;-4.472;2022-12-18T00:03:33;38.00;29.50;17.00
76238;PMS7003;65043;48.392;-4.472;2022-12-18T00:05:58;37.00;32.50;21.50
76238;PMS7003;65043;48.392;-4.472;2022-12-18T00:08:24;37.25;31.75;21.75
76238;PMS7003;65043;48.392;-4.472;2022-12-18T00:10:50;36.50;30.25;18.75
76238;PMS7003;65043;48.392;-4.472;2022-12-18T00:13:16;36.75;29.00;21.00
76238;PMS7003;65043;48.392;-4.472;2022-12-18T00:15:41;42.25;36.00;20.75
76238;PMS7003;65043;48.392;-4.472;2022-12-18T00:18:07;49.25;37.50;23.25
76238;PMS7003;65043;48.392;-4.472;2022-12-18T00:20:39;41.75;35.00;21.25
76238;PMS7003;65043;48.392;-4.472;2022-12-18T00:23:05;41.25;33.50;20.75
76238;PMS7003;65043;48.392;-4.472;2022-12-18T00:25:34;39.50;33.50;19.75
76238;PMS7003;65043;48.392;-4.472;2022-12-18T00:28:01;34.25;31.25;21.25
76238;PMS7003;65043;48.392;-4.472;2022-12-18T00:30:27;43.75;35.75;24.00
76238;PMS7003;65043;48.392;-4.472;2022-12-18T00:32:53;45.25;35.00;20.75
76238;PMS7003;65043;48.392;-4.472;2022-12-18T00:35:18;45.50;36.00;20.50
76238;PMS7003;65043;48.392;-4.472;2022-12-18T00:37:43;38.50;33.75;20.00
76238;PMS7003;65043;48.392;-4.472;2022-12-18T00:40:09;41.00;34.75;20.00
76238;PMS7003;65043;48.392;-4.472;2022-12-18T00:42:35;45.25;35.00;21.00
76238;PMS7003;65043;48.392;-4.472;2022-12-18T00:45:18;29.25;27.75;16.00
76238;PMS7003;65043;48.392;-4.472;2022-12-18T00:47:44;53.75;40.25;23.00
76238;PMS7003;65043;48.392;-4.472;2022-12-18T00:50:09;37.50;34.50;23.50
76238;PMS7003;65043;48.392;-4.472;2022-12-18T00:52:35;46.25;37.50;21.50
76238;PMS7003;65043;48.392;-4.472;2022-12-18T00:55:00;41.75;36.50;21.00
76238;PMS7003;65043;48.392;-4.472;2022-12-18T00:57:25;41.25;28.75;17.75
76238;PMS7003;65043;48.392;-4.472;2022-12-18T00:59:51;46.00;35.75;22.50
76238;PMS7003;65043;48.392;-4.472;2022-12-18T01:02:16;45.50;40.00;24.75
76238;PMS7003;65043;48.392;-4.472;2022-12-18T01:04:42;50.00;36.75;20.50
76238;PMS7003;65043;48.392;-4.472;2022-12-18T01:07:07;40.50;31.25;20.75
76238;PMS7003;65043;48.392;-4.472;2022-12-18T01:09:32;45.00;37.75;21.00
76238;PMS7003;65043;48.392;-4.472;2022-12-18T01:11:58;46.00;37.00;23.50
76238;PMS7003;65043;48.392;-4.472;2022-12-18T01:14:23;39.75;35.50;21.00
76238;PMS7003;65043;48.392;-4.472;2022-12-18T01:16:48;41.00;32.50;21.25
76238;PMS7003;65043;48.392;-4.472;2022-12-18T01:19:14;35.50;32.50;22.50
76238;PMS7003;65043;48.392;-4.472;2022-12-18T01:21:40;39.75;35.25;25.00
76238;PMS7003;65043;48.392;-4.472;2022-12-18T01:24:05;44.25;36.75;25.00
76238;PMS7003;65043;48.392;-4.472;2022-12-18T01:26:31;43.00;39.00;22.00
76238;PMS7003;65043;48.392;-4.472;2022-12-18T01:28:56;42.25;35.00;21.50
76238;PMS7003;65043;48.392;-4.472;2022-12-18T01:33:49;52.25;39.25;24.00
76238;PMS7003;65043;48.392;-4.472;2022-12-18T01:38:44;48.75;39.25;21.25
76238;PMS7003;65043;48.392;-4.472;2022-12-18T01:41:10;40.25;33.50;21.25
76238;PMS7003;65043;48.392;-4.472;2022-12-18T01:46:22;45.00;36.00;21.00
76238;PMS7003;65043;48.392;-4.472;2022-12-18T01:48:49;49.25;37.50;22.75
76238;PMS7003;65043;48.392;-4.472;2022-12-18T01:51:17;46.00;35.75;22.75
76238;PMS7003;65043;48.392;-4.472;2022-12-18T01:53:43;47.25;37.75;22.50
76238;PMS7003;65043;48.392;-4.472;2022-12-18T01:56:12;43.00;37.25;22.50
76238;PMS7003;65043;48.392;-4.472;2022-12-18T02:01:04;49.67;34.67;21.00
76238;PMS7003;65043;48.392;-4.472;2022-12-18T02:03:30;50.75;37.00;22.25
76238;PMS7003;65043;48.392;-4.472;2022-12-18T02:16:50;42.50;29.00;18.25
76238;PMS7003;65043;48.392;-4.472;2022-12-18T02:22:26;51.00;37.25;21.75
76238;PMS7003;65043;48.392;-4.472;2022-12-18T02:25:01;51.25;40.25;25.00
76238;PMS7003;65043;48.392;-4.472;2022-12-18T02:27:30;42.50;35.50;21.50
76238;PMS7003;65043;48.392;-4.472;2022-12-18T02:29:58;40.50;34.75;22.50
76238;PMS7003;65043;48.392;-4.472;2022-12-18T02:32:30;55.00;42.75;23.75
76238;PMS7003;65043;48.392;-4.472;2022-12-18T02:35:02;40.50;29.75;20.50
76238;PMS7003;65043;48.392;-4.472;2022-12-18T02:37:30;47.00;37.50;22.00
76238;PMS7003;65043;48.392;-4.472;2022-12-18T02:39:57;43.50;37.50;21.00
76238;PMS7003;65043;48.392;-4.472;2022-12-18T02:42:24;46.25;36.75;23.50
76238;PMS7003;65043;48.392;-4.472;2022-12-18T02:44:50;37.50;35.50;20.50
76238;PMS7003;65043;48.392;-4.472;2022-12-18T02:47:17;44.00;37.50;22.50
76238;PMS7003;65043;48.392;-4.472;2022-12-18T02:52:31;40.50;35.50;21.50
76238;PMS7003;65043;48.392;-4.472;2022-12-18T02:55:20;40.75;36.75;22.75
76238;PMS7003;65043;48.392;-4.472;2022-12-18T02:57:56;47.75;36.00;20.25
76238;PMS7003;65043;48.392;-4.472;2022-12-18T03:00:32;31.00;31.00;21.00
76238;PMS7003;65043;48.392;-4.472;2022-12-18T03:03:05;51.50;38.50;22.75
76238;PMS7003;65043;48.392;-4.472;2022-12-18T03:05:39;34.75;32.75;20.25
76238;PMS7003;65043;48.392;-4.472;2022-12-18T03:08:10;37.75;34.25;21.00
76238;PMS7003;65043;48.392;-4.472;2022-12-18T03:10:43;44.00;35.25;21.50
76238;PMS7003;65043;48.392;-4.472;2022-12-18T03:13:16;46.25;36.50;22.00
76238;PMS7003;65043;48.392;-4.472;2022-12-18T03:15:56;45.75;34.25;21.50
76238;PMS7003;65043;48.392;-4.472;2022-12-18T03:18:26;33.50;28.00;18.25
76238;PMS7003;65043;48.392;-4.472;2022-12-18T03:20:58;45.50;36.75;22.00
76238;PMS7003;65043;48.392;-4.472;2022-12-18T03:23:27;34.50;30.50;19.50
76238;PMS7003;65043;48.392;-4.472;2022-12-18T03:25:58;54.75;33.50;19.75
76238;PMS7003;65043;48.392;-4.472;2022-12-18T03:28:27;44.50;31.25;18.25
76238;PMS7003;65043;48.392;-4.472;2022-12-18T03:30:57;48.25;36.75;22.25
76238;PMS7003;65043;48.392;-4.472;2022-12-18T03:33:26;42.25;37.00;22.00
76238;PMS7003;65043;48.392;-4.472;2022-12-18T03:35:57;40.50;32.25;20.75
76238;PMS7003;65043;48.392;-4.472;2022-12-18T03:38:22;33.75;30.25;21.00
76238;PMS7003;65043;48.392;-4.472;2022-12-18T03:49:22;42.25;34.00;21.50
76238;PMS7003;65043;48.392;-4.472;2022-12-18T03:55:07;46.50;33.50;23.00
76238;PMS7003;65043;48.392;-4.472;2022-12-18T03:57:34;42.50;33.75;19.75
76238;PMS7003;65043;48.392;-4.472;2022-12-18T04:00:04;26.25;18.25;8.00
76238;PMS7003;65043;48.392;-4.472;2022-12-18T04:02:34;38.75;30.25;19.75
76238;PMS7003;65043;48.392;-4.472;2022-12-18T04:05:05;35.75;32.00;20.25
76238;PMS7003;65043;48.392;-4.472;2022-12-18T04:07:33;42.25;34.25;21.75
76238;PMS7003;65043;48.392;-4.472;2022-12-18T04:09:59;46.25;37.00;20.00
76238;PMS7003;65043;48.392;-4.472;2022-12-18T04:12:28;23.00;20.75;15.75
76238;PMS7003;65043;48.392;-4.472;2022-12-18T04:14:56;43.75;33.50;22.00
76238;PMS7003;65043;48.392;-4.472;2022-12-18T04:17:21;39.00;33.00;19.75
76238;PMS7003;65043;48.392;-4.472;2022-12-18T04:19:47;37.75;32.75;21.00
76238;PMS7003;65043;48.392;-4.472;2022-12-18T04:22:13;28.25;28.25;18.00
76238;PMS7003;65043;48.392;-4.472;2022-12-18T04:24:38;46.00;33.00;21.00
76238;PMS7003;65043;48.392;-4.472;2022-12-18T04:27:03;42.75;34.75;23.00
76238;PMS7003;65043;48.392;-4.472;2022-12-18T04:29:29;40.00;28.75;17.50
76238;PMS7003;65043;48.392;-4.472;2022-12-18T04:31:54;39.00;31.25;20.25
76238;PMS7003;65043;48.392;-4.472;2022-12-18T04:34:20;41.00;33.00;18.25
76238;PMS7003;65043;48.392;-4.472;2022-12-18T04:36:46;34.25;30.50;19.00
76238;PMS7003;65043;48.392;-4.472;2022-12-18T04:39:12;34.00;30.25;19.00
76238;PMS7003;65043;48.392;-4.472;2022-12-18T04:41:37;41.25;31.75;18.00
76238;PMS7003;65043;48.392;-4.472;2022-12-18T04:44:03;30.75;25.25;18.00
76238;PMS7003;65043;48.392;-4.472;2022-12-18T04:46:29;31.00;28.50;17.50
76238;PMS7003;65043;48.392;-4.472;2022-12-18T04:48:54;37.00;31.25;19.75
76238;PMS7003;65043;48.392;-4.472;2022-12-18T04:51:20;38.25;31.50;18.00
76238;PMS7003;65043;48.392;-4.472;2022-12-18T04:53:46;34.75;32.00;20.25
76238;PMS7003;65043;48.392;-4.472;2022-12-18T04:56:12;36.50;31.00;20.75
76238;PMS7003;65043;48.392;-4.472;2022-12-18T04:58:39;38.25;29.25;16.50
76238;PMS7003;65043;48.392;-4.472;2022-12-18T05:01:07;31.75;25.50;18.25
76238;PMS7003;65043;48.392;-4.472;2022-12-18T05:03:33;27.25;22.75;16.25
76238;PMS7003;65043;48.392;-4.472;2022-12-18T05:05:59;37.75;29.25;17.25
76238;PMS7003;65043;48.392;-4.472;2022-12-18T05:08:25;22.25;18.00;13.00
76238;PMS7003;65043;48.392;-4.472;2022-12-18T05:13:25;34.50;27.75;18.25
76238;PMS7003;65043;48.392;-4.472;2022-12-18T05:15:52;30.00;22.00;15.00
76238;PMS7003;65043;48.392;-4.472;2022-12-18T05:18:17;30.25;24.75;15.00
76238;PMS7003;65043;48.392;-4.472;2022-12-18T05:20:43;31.75;29.50;17.75
76238;PMS7003;65043;48.392;-4.472;2022-12-18T05:23:08;36.00;30.25;18.00
76238;PMS7003;65043;48.392;-4.472;2022-12-18T05:25:33;28.50;23.75;16.50
76238;PMS7003;65043;48.392;-4.472;2022-12-18T05:27:59;32.25;30.75;19.25
76238;PMS7003;65043;48.392;-4.472;2022-12-18T05:30:24;28.25;25.00;16.25
76238;PMS7003;65043;48.392;-4.472;2022-12-18T05:32:49;24.75;21.00;14.25
76238;PMS7003;65043;48.392;-4.472;2022-12-18T05:35:15;25.00;22.25;13.50
76238;PMS7003;65043;48.392;-4.472;2022-12-18T05:37:41;23.50;20.00;13.25
76238;PMS7003;65043;48.392;-4.472;2022-12-18T05:40:06;23.50;22.00;14.00
76238;PMS7003;65043;48.392;-4.472;2022-12-18T05:42:32;26.25;23.25;13.00
76238;PMS7003;65043;48.392;-4.472;2022-12-18T05:44:58;31.00;24.00;14.00
76238;PMS7003;65043;48.392;-4.472;2022-12-18T05:47:23;27.75;22.75;15.25
76238;PMS7003;65043;48.392;-4.472;2022-12-18T05:49:48;28.00;22.75;14.75
76238;PMS7003;65043;48.392;-4.472;2022-12-18T05:52:14;24.50;21.50;15.25
76238;PMS7003;65043;48.392;-4.472;2022-12-18T05:54:39;30.25;25.50;15.75
76238;PMS7003;65043;48.392;-4.472;2022-12-18T05:57:05;30.25;24.25;16.25
76238;PMS7003;65043;48.392;-4.472;2022-12-18T05:59:30;26.00;22.50;14.75
76238;PMS7003;65043;48.392;-4.472;2022-12-18T06:01:56;34.50;26.00;15.50
76238;PMS7003;65043;48.392;-4.472;2022-12-18T06:04:21;31.00;25.00;15.00
76238;PMS7003;65043;48.392;-4.472;2022-12-18T06:06:47;32.00;24.75;16.50
76238;PMS7003;65043;48.392;-4.472;2022-12-18T06:09:13;26.50;25.00;14.00
76238;PMS7003;65043;48.392;-4.472;2022-12-18T06:11:38;21.25;20.75;14.25
76238;PMS7003;65043;48.392;-4.472;2022-12-18T06:14:04;30.75;26.50;15.00
76238;PMS7003;65043;48.392;-4.472;2022-12-18T06:16:31;28.00;21.75;14.75
76238;PMS7003;65043;48.392;-4.472;2022-12-18T06:19:00;30.25;24.75;14.75
76238;PMS7003;65043;48.392;-4.472;2022-12-18T06:21:27;21.00;21.00;14.00
76238;PMS7003;65043;48.392;-4.472;2022-12-18T06:23:54;22.00;19.00;13.00
76238;PMS7003;65043;48.392;-4.472;2022-12-18T06:26:20;19.75;19.75;12.75
76238;PMS7003;65043;48.392;-4.472;2022-12-18T06:28:46;22.75;16.75;11.75
76238;PMS7003;65043;48.392;-4.472;2022-12-18T06:31:12;24.50;20.25;15.00
76238;PMS7003;65043;48.392;-4.472;2022-12-18T06:33:38;20.00;19.00;12.00
76238;PMS7003;65043;48.392;-4.472;2022-12-18T06:36:04;23.75;22.75;13.75
76238;PMS7003;65043;48.392;-4.472;2022-12-18T06:38:33;25.50;22.00;14.25
76238;PMS7003;65043;48.392;-4.472;2022-12-18T06:40:59;20.25;16.75;13.00
76238;PMS7003;65043;48.392;-4.472;2022-12-18T06:43:25;24.75;18.25;14.00
76238;PMS7003;65043;48.392;-4.472;2022-12-18T06:45:51;23.00;21.00;15.00
76238;PMS7003;65043;48.392;-4.472;2022-12-18T06:48:22;25.00;21.00;14.75
76238;PMS7003;65043;48.392;-4.472;2022-12-18T06:50:47;20.75;15.75;11.00
76238;PMS7003;65043;48.392;-4.472;2022-12-18T06:53:13;24.75;16.75;13.50
76238;PMS7003;65043;48.392;-4.472;2022-12-18T06:55:39;18.75;17.00;12.50
76238;PMS7003;65043;48.392;-4.472;2022-12-18T06:58:04;22.00;15.75;11.00
76238;PMS7003;65043;48.392;-4.472;2022-12-18T07:00:29;21.75;16.75;10.50
76238;PMS7003;65043;48.392;-4.472;2022-12-18T07:02:55;22.75;20.75;11.00
76238;PMS7003;65043;48.392;-4.472;2022-12-18T07:05:20;15.25;14.50;10.00
76238;PMS7003;65043;48.392;-4.472;2022-12-18T07:07:46;16.75;14.00;9.00
76238;PMS7003;65043;48.392;-4.472;2022-12-18T07:10:11;16.50;14.50;10.75
76238;PMS7003;65043;48.392;-4.472;2022-12-18T07:12:36;19.25;16.50;10.50
76238;PMS7003;65043;48.392;-4.472;2022-12-18T07:15:02;16.75;15.50;9.00
76238;PMS7003;65043;48.392;-4.472;2022-12-18T07:17:28;16.75;11.25;9.25
76238;PMS7003;65043;48.392;-4.472;2022-12-18T07:19:54;18.50;16.00;10.00
76238;PMS7003;65043;48.392;-4.472;2022-12-18T07:22:19;17.75;11.00;7.50
76238;PMS7003;65043;48.392;-4.472;2022-12-18T07:24:45;12.50;11.50;8.00
76238;PMS7003;65043;48.392;-4.472;2022-12-18T07:27:10;14.50;11.50;8.75
76238;PMS7003;65043;48.392;-4.472;2022-12-18T07:29:35;14.50;13.00;9.00
76238;PMS7003;65043;48.392;-4.472;2022-12-18T07:32:01;13.00;10.25;8.00
76238;PMS7003;65043;48.392;-4.472;2022-12-18T07:34:26;14.00;10.00;7.00
76238;PMS7003;65043;48.392;-4.472;2022-12-18T07:36:52;19.25;13.75;9.00
76238;PMS7003;65043;48.392;-4.472;2022-12-18T07:39:17;16.25;14.25;9.00
76238;PMS7003;65043;48.392;-4.472;2022-12-18T07:41:42;15.25;12.50;8.50
76238;PMS7003;65043;48.392;-4.472;2022-12-18T07:44:11;17.75;11.50;8.25
76238;PMS7003;65043;48.392;-4.472;2022-12-18T07:46:37;12.75;9.50;7.00
76238;PMS7003;65043;48.392;-4.472;2022-12-18T07:49:03;12.75;11.00;8.00
76238;PMS7003;65043;48.392;-4.472;2022-12-18T07:51:28;12.50;9.75;6.25
76238;PMS7003;65043;48.392;-4.472;2022-12-18T07:53:54;13.25;12.00;7.00
76238;PMS7003;65043;48.392;-4.472;2022-12-18T07:56:19;12.50;9.00;6.25
76238;PMS7003;65043;48.392;-4.472;2022-12-18T07:58:45;10.00;8.50;5.75
76238;PMS7003;65043;48.392;-4.472;2022-12-18T08:01:11;11.25;10.00;6.00
76238;PMS7003;65043;48.392;-4.472;2022-12-18T08:03:37;15.25;9.25;5.00
76238;PMS7003;65043;48.392;-4.472;2022-12-18T08:06:04;12.00;11.00;6.25
76238;PMS7003;65043;48.392;-4.472;2022-12-18T08:08:31;10.75;9.75;6.25
76238;PMS7003;65043;48.392;-4.472;2022-12-18T08:10:57;9.25;8.50;5.50
76238;PMS7003;65043;48.392;-4.472;2022-12-18T08:13:23;11.00;10.25;6.50
76238;PMS7003;65043;48.392;-4.472;2022-12-18T08:15:56;10.75;10.75;6.00
76238;PMS7003;65043;48.392;-4.472;2022-12-18T08:18:29;10.25;8.25;5.00
76238;PMS7003;65043;48.392;-4.472;2022-12-18T08:20:57;11.75;9.75;5.75
76238;PMS7003;65043;48.392;-4.472;2022-12-18T08:23:22;12.75;7.25;4.25
76238;PMS7003;65043;48.392;-4.472;2022-12-18T08:25:48;8.00;6.00;4.00
76238;PMS7003;65043;48.392;-4.472;2022-12-18T08:28:16;9.50;4.50;3.00
76238;PMS7003;65043;48.392;-4.472;2022-12-18T08:30:42;6.25;6.00;4.75
76238;PMS7003;65043;48.392;-4.472;2022-12-18T08:33:07;8.25;5.25;3.75
76238;PMS7003;65043;48.392;-4.472;2022-12-18T08:35:36;9.50;6.00;4.00
76238;PMS7003;65043;48.392;-4.472;2022-12-18T08:38:01;8.75;5.00;3.00
76238;PMS7003;65043;48.392;-4.472;2022-12-18T08:40:27;9.75;5.00;4.00
76238;PMS7003;65043;48.392;-4.472;2022-12-18T08:42:52;7.25;7.25;4.00
76238;PMS7003;65043;48.392;-4.472;2022-12-18T08:45:36;8.75;4.00;3.00
76238;PMS7003;65043;48.392;-4.472;2022-12-18T08:48:02;7.25;6.50;3.25
76238;PMS7003;65043;48.392;-4.472;2022-12-18T08:50:27;8.25;7.75;4.25
76238;PMS7003;65043;48.392;-4.472;2022-12-18T08:52:53;9.00;5.00;3.00
76238;PMS7003;65043;48.392;-4.472;2022-12-18T08:55:18;6.25;4.75;3.00
76238;PMS7003;65043;48.392;-4.472;2022-12-18T08:57:47;9.75;6.00;3.25
76238;PMS7003;65043;48.392;-4.472;2022-12-18T09:00:14;6.75;4.75;3.00
76238;PMS7003;65043;48.392;-4.472;2022-12-18T09:02:39;6.00;6.00;4.00
76238;PMS7003;65043;48.392;-4.472;2022-12-18T09:05:05;9.25;5.25;3.25
76238;PMS7003;65043;48.392;-4.472;2022-12-18T09:07:30;5.00;4.00;3.00
76238;PMS7003;65043;48.392;-4.472;2022-12-18T09:09:56;10.50;8.00;4.00
76238;PMS7003;65043;48.392;-4.472;2022-12-18T09:12:21;7.00;5.75;3.75
76238;PMS7003;65043;48.392;-4.472;2022-12-18T09:14:46;6.50;6.50;4.00
76238;PMS7003;65043;48.392;-4.472;2022-12-18T09:17:12;11.00;10.75;5.00
76238;PMS7003;65043;48.392;-4.472;2022-12-18T09:19:37;8.00;6.75;5.25
76238;PMS7003;65043;48.392;-4.472;2022-12-18T09:22:02;6.50;5.25;3.75
76238;PMS7003;65043;48.392;-4.472;2022-12-18T09:24:28;7.00;5.00;3.00
76238;PMS7003;65043;48.392;-4.472;2022-12-18T09:26:53;6.50;4.75;3.00
76238;PMS7003;65043;48.392;-4.472;2022-12-18T09:29:20;5.75;4.25;3.25
76238;PMS7003;65043;48.392;-4.472;2022-12-18T09:31:46;10.75;5.50;3.00
76238;PMS7003;65043;48.392;-4.472;2022-12-18T09:34:11;9.00;5.00;3.00
76238;PMS7003;65043;48.392;-4.472;2022-12-18T09:36:37;8.00;4.75;3.00
76238;PMS7003;65043;48.392;-4.472;2022-12-18T09:39:02;7.00;5.50;3.00
76238;PMS7003;65043;48.392;-4.472;2022-12-18T09:41:42;8.00;5.00;3.00
76238;PMS7003;65043;48.392;-4.472;2022-12-18T09:47:07;6.00;6.00;4.00
76238;PMS7003;65043;48.392;-4.472;2022-12-18T09:49:52;5.25;3.25;2.00
76238;PMS7003;65043;48.392;-4.472;2022-12-18T09:54:55;9.25;6.50;4.00
76238;PMS7003;65043;48.392;-4.472;2022-12-18T09:57:25;12.00;4.75;3.00
76238;PMS7003;65043;48.392;-4.472;2022-12-18T10:00:11;6.00;5.25;3.50
76238;PMS7003;65043;48.392;-4.472;2022-12-18T10:02:43;9.25;5.25;3.25
76238;PMS7003;65043;48.392;-4.472;2022-12-18T10:05:16;6.25;4.50;3.00
76238;PMS7003;65043;48.392;-4.472;2022-12-18T10:10:51;7.00;4.50;3.00
76238;PMS7003;65043;48.392;-4.472;2022-12-18T10:13:30;11.00;6.00;3.25
76238;PMS7003;65043;48.392;-4.472;2022-12-18T10:18:46;12.75;6.50;3.75
76238;PMS7003;65043;48.392;-4.472;2022-12-18T10:21:39;8.50;5.00;4.00
76238;PMS7003;65043;48.392;-4.472;2022-12-18T10:27:12;8.75;4.00;2.00
76238;PMS7003;65043;48.392;-4.472;2022-12-18T10:29:41;10.25;5.00;3.50
76238;PMS7003;65043;48.392;-4.472;2022-12-18T10:32:17;8.00;5.75;3.25
76238;PMS7003;65043;48.392;-4.472;2022-12-18T10:34:46;8.00;6.00;2.50
76238;PMS7003;65043;48.392;-4.472;2022-12-18T10:37:16;6.25;5.00;3.00
76238;PMS7003;65043;48.392;-4.472;2022-12-18T10:39:43;7.50;4.00;3.00
76238;PMS7003;65043;48.392;-4.472;2022-12-18T10:42:11;7.50;4.50;2.25
76238;PMS7003;65043;48.392;-4.472;2022-12-18T10:44:42;3.75;3.75;2.00
76238;PMS7003;65043;48.392;-4.472;2022-12-18T10:47:11;7.75;5.50;3.00
76238;PMS7003;65043;48.392;-4.472;2022-12-18T10:49:41;8.50;4.50;2.25
76238;PMS7003;65043;48.392;-4.472;2022-12-18T10:54:46;8.00;4.75;3.00
76238;PMS7003;65043;48.392;-4.472;2022-12-18T10:59:55;10.50;5.25;3.25
76238;PMS7003;65043;48.392;-4.472;2022-12-18T11:05:01;7.75;5.25;4.00
76238;PMS7003;65043;48.392;-4.472;2022-12-18T11:07:47;9.25;5.00;3.75
76238;PMS7003;65043;48.392;-4.472;2022-12-18T11:10:20;6.00;4.25;2.75
76238;PMS7003;65043;48.392;-4.472;2022-12-18T11:12:47;11.00;4.50;3.00
76238;PMS7003;65043;48.392;-4.472;2022-12-18T11:15:15;9.50;4.25;3.75
76238;PMS7003;65043;48.392;-4.472;2022-12-18T11:17:51;6.75;3.00;2.00
76238;PMS7003;65043;48.392;-4.472;2022-12-18T11:23:04;5.50;4.50;3.00
76238;PMS7003;65043;48.392;-4.472;2022-12-18T11:25:37;7.00;4.50;3.25
76238;PMS7003;65043;48.392;-4.472;2022-12-18T11:30:47;10.75;5.75;3.50
76238;PMS7003;65043;48.392;-4.472;2022-12-18T11:33:17;11.00;6.00;4.00
76238;PMS7003;65043;48.392;-4.472;2022-12-18T11:35:49;10.25;5.50;4.00
76238;PMS7003;65043;48.392;-4.472;2022-12-18T11:38:24;8.00;5.25;4.00
76238;PMS7003;65043;48.392;-4.472;2022-12-18T11:43:52;5.50;5.00;3.75
76238;PMS7003;65043;48.392;-4.472;2022-12-18T11:46:34;5.25;4.75;2.75
76238;PMS7003;65043;48.392;-4.472;2022-12-18T11:49:17;7.00;5.75;3.00
76238;PMS7003;65043;48.392;-4.472;2022-12-18T11:51:49;11.00;6.00;4.00
76238;PMS7003;65043;48.392;-4.472;2022-12-18T11:54:18;8.75;5.50;4.00
76238;PMS7003;65043;48.392;-4.472;2022-12-18T11:56:46;7.50;6.50;4.00
76238;PMS7003;65043;48.392;-4.472;2022-12-18T11:59:21;8.00;5.00;3.00
76238;PMS7003;65043;48.392;-4.472;2022-12-18T12:17:17;7.50;6.00;5.00
76238;PMS7003;65043;48.392;-4.472;2022-12-18T12:20:17;8.50;6.75;3.75
76238;PMS7003;65043;48.392;-4.472;2022-12-18T12:25:46;7.25;6.00;3.00
76238;PMS7003;65043;48.392;-4.472;2022-12-18T12:38:40;6.75;5.00;3.00
76238;PMS7003;65043;48.392;-4.472;2022-12-18T12:41:24;11.50;6.75;4.25
76238;PMS7003;65043;48.392;-4.472;2022-12-18T12:44:22;7.00;6.00;3.75
76238;PMS7003;65043;48.392;-4.472;2022-12-18T12:46:52;6.75;5.00;4.00
76238;PMS7003;65043;48.392;-4.472;2022-12-18T12:49:25;6.00;4.50;3.00
76238;PMS7003;65043;48.392;-4.472;2022-12-18T12:52:00;12.50;7.25;3.00
76238;PMS7003;65043;48.392;-4.472;2022-12-18T12:54:47;5.00;5.00;4.00
76238;PMS7003;65043;48.392;-4.472;2022-12-18T12:57:16;6.25;4.50;3.00
76238;PMS7003;65043;48.392;-4.472;2022-12-18T13:00:04;7.75;4.75;3.50
76238;PMS7003;65043;48.392;-4.472;2022-12-18T13:02:56;7.25;6.50;4.00
76238;PMS7003;65043;48.392;-4.472;2022-12-18T13:08:25;8.50;5.00;3.25
76238;PMS7003;65043;48.392;-4.472;2022-12-18T13:10:53;4.75;4.75;2.75
76238;PMS7003;65043;48.392;-4.472;2022-12-18T13:16:17;8.00;5.75;3.00
76238;PMS7003;65043;48.392;-4.472;2022-12-18T13:18:51;14.00;7.50;3.50
76238;PMS7003;65043;48.392;-4.472;2022-12-18T13:21:27;10.75;7.50;4.00
76238;PMS7003;65043;48.392;-4.472;2022-12-18T13:23:54;13.75;8.50;4.00
76238;PMS7003;65043;48.392;-4.472;2022-12-18T13:26:38;11.50;6.50;3.00
76238;PMS7003;65043;48.392;-4.472;2022-12-18T13:29:04;8.25;6.25;5.00
76238;PMS7003;65043;48.392;-4.472;2022-12-18T13:34:18;11.25;4.75;3.00
76238;PMS7003;65043;48.392;-4.472;2022-12-18T13:36:49;15.50;8.00;2.75
76238;PMS7003;65043;48.392;-4.472;2022-12-18T13:41:44;8.25;5.00;2.50
76238;PMS7003;65043;48.392;-4.472;2022-12-18T13:46:58;9.50;6.75;3.00
76238;PMS7003;65043;48.392;-4.472;2022-12-18T13:52:02;7.25;5.00;4.00
76238;PMS7003;65043;48.392;-4.472;2022-12-18T13:54:39;11.25;7.50;3.75
76238;PMS7003;65043;48.392;-4.472;2022-12-18T13:57:24;6.00;5.25;3.00
76238;PMS7003;65043;48.392;-4.472;2022-12-18T14:02:54;9.75;5.00;3.00
76238;PMS7003;65043;48.392;-4.472;2022-12-18T14:05:24;7.00;5.50;2.50
76238;PMS7003;65043;48.392;-4.472;2022-12-18T14:07:52;8.25;6.00;3.00
76238;PMS7003;65043;48.392;-4.472;2022-12-18T14:10:19;6.50;5.25;2.00
76238;PMS7003;65043;48.392;-4.472;2022-12-18T14:12:46;6.50;5.00;3.00
76238;PMS7003;65043;48.392;-4.472;2022-12-18T14:20:41;8.25;6.75;3.00
76238;PMS7003;65043;48.392;-4.472;2022-12-18T14:23:25;11.25;5.25;2.00
76238;PMS7003;65043;48.392;-4.472;2022-12-18T14:25:51;6.50;4.50;2.25
76238;PMS7003;65043;48.392;-4.472;2022-12-18T14:28:16;15.25;7.00;3.00
76238;PMS7003;65043;48.392;-4.472;2022-12-18T14:30:43;6.50;4.25;2.25
76238;PMS7003;65043;48.392;-4.472;2022-12-18T14:33:11;3.50;3.50;2.00
76238;PMS7003;65043;48.392;-4.472;2022-12-18T14:35:40;13.25;8.00;3.00
76238;PMS7003;65043;48.392;-4.472;2022-12-18T14:40:41;15.00;5.75;3.00
76238;PMS7003;65043;48.392;-4.472;2022-12-18T14:43:10;10.50;6.50;3.00
76238;PMS7003;65043;48.392;-4.472;2022-12-18T14:45:37;13.75;7.00;2.75
76238;PMS7003;65043;48.392;-4.472;2022-12-18T14:48:17;7.25;4.50;2.00
76238;PMS7003;65043;48.392;-4.472;2022-12-18T14:50:43;5.00;4.25;2.00
76238;PMS7003;65043;48.392;-4.472;2022-12-18T14:53:20;8.75;4.00;2.00
76238;PMS7003;65043;48.392;-4.472;2022-12-18T14:55:48;8.75;7.00;2.00
76238;PMS7003;65043;48.392;-4.472;2022-12-18T14:58:15;12.00;5.25;3.00
76238;PMS7003;65043;48.392;-4.472;2022-12-18T15:00:42;6.50;4.50;2.50
76238;PMS7003;65043;48.392;-4.472;2022-12-18T15:03:08;10.50;5.75;3.25
76238;PMS7003;65043;48.392;-4.472;2022-12-18T15:05:35;7.50;4.00;1.25
76238;PMS7003;65043;48.392;-4.472;2022-12-18T15:08:01;7.25;4.25;2.00
76238;PMS7003;65043;48.392;-4.472;2022-12-18T15:10:31;9.00;5.00;2.00
76238;PMS7003;65043;48.392;-4.472;2022-12-18T15:25:54;5.75;4.50;3.00
76238;PMS7003;65043;48.392;-4.472;2022-12-18T15:28:24;4.50;4.00;2.75
76238;PMS7003;65043;48.392;-4.472;2022-12-18T15:36:17;6.25;5.75;2.50
76238;PMS7003;65043;48.392;-4.472;2022-12-18T15:38:49;8.00;4.00;2.00
76238;PMS7003;65043;48.392;-4.472;2022-12-18T15:41:16;9.00;5.50;2.75
76238;PMS7003;65043;48.392;-4.472;2022-12-18T15:43:44;2.75;2.75;1.75
76238;PMS7003;65043;48.392;-4.472;2022-12-18T15:46:12;8.25;5.00;2.25
76238;PMS7003;65043;48.392;-4.472;2022-12-18T15:48:40;5.50;3.00;1.75
76238;PMS7003;65043;48.392;-4.472;2022-12-18T15:51:21;3.50;3.00;2.00
76238;PMS7003;65043;48.392;-4.472;2022-12-18T15:53:53;7.25;4.25;3.00
76238;PMS7003;65043;48.392;-4.472;2022-12-18T15:56:20;10.50;4.75;2.00
76238;PMS7003;65043;48.392;-4.472;2022-12-18T15:59:09;10.50;5.50;2.50
76238;PMS7003;65043;48.392;-4.472;2022-12-18T16:01:46;7.75;5.00;1.75
76238;PMS7003;65043;48.392;-4.472;2022-12-18T16:04:13;7.00;5.00;2.00
76238;PMS7003;65043;48.392;-4.472;2022-12-18T16:06:41;6.25;4.75;4.00
76238;PMS7003;65043;48.392;-4.472;2022-12-18T16:09:06;10.75;6.25;3.00
76238;PMS7003;65043;48.392;-4.472;2022-12-18T16:11:32;7.25;5.00;3.00
76238;PMS7003;65043;48.392;-4.472;2022-12-18T16:14:12;10.25;4.25;3.00
76238;PMS7003;65043;48.392;-4.472;2022-12-18T16:16:40;6.25;5.50;2.75
76238;PMS7003;65043;48.392;-4.472;2022-12-18T16:19:06;7.50;4.00;2.00
76238;PMS7003;65043;48.392;-4.472;2022-12-18T16:21:32;10.25;6.25;3.75
76238;PMS7003;65043;48.392;-4.472;2022-12-18T16:23:57;5.25;5.25;2.00